Time,TemperatureF,DewpointF,PressureIn,WindDirection,WindDirectionDegrees,WindSpeedMPH,WindSpeedGustMPH,Humidity,HourlyPrecipIn,Conditions,Clouds,dailyrainin,SoftwareType,DateUTC
2013-09-09 00:14:00,51.0,43.0,30.06,West,267,0.0,1.0,75,0.00,,,0.00,,2013-09-09 04:14:00,
2013-09-09 00:24:00,50.0,43.0,30.07,West,267,0.0,0.0,76,0.00,,,0.00,,2013-09-09 04:24:00,
2013-09-09 00:54:00,49.0,42.0,30.07,West,267,0.0,0.0,76,0.00,,,0.00,,2013-09-09 04:54:00,
2013-09-09 01:23:00,48.0,41.0,30.07,West,267,0.0,0.0,77,0.00,,,0.00,,2013-09-09 05:23:00,
2013-09-09 01:53:00,47.0,41.0,30.09,West,267,0.0,1.0,79,0.00,,,0.00,,2013-09-09 05:53:00,
2013-09-09 02:22:00,48.0,42.0,30.09,NNW,342,0.0,1.0,81,0.00,,,0.00,,2013-09-09 06:22:00,
2013-09-09 02:52:00,47.0,41.0,30.09,NNW,342,0.0,1.0,81,0.00,,,0.00,,2013-09-09 06:52:00,
2013-09-09 03:22:00,47.0,41.0,30.09,NNW,342,0.0,1.0,81,0.00,,,0.00,,2013-09-09 07:22:00,
2013-09-09 03:52:00,45.0,40.0,30.11,NNW,342,0.0,1.0,84,0.00,,,0.00,,2013-09-09 07:52:00,
2013-09-09 04:12:00,45.0,40.0,30.11,NNW,342,0.0,1.0,84,0.00,,,0.00,,2013-09-09 08:12:00,
2013-09-09 04:22:00,46.0,41.0,30.11,North,1,0.0,0.0,81,0.00,,,0.00,,2013-09-09 08:22:00,
2013-09-09 04:52:00,47.0,41.0,30.12,North,350,0.0,0.0,79,0.00,,,0.00,,2013-09-09 08:52:00,
2013-09-09 05:22:00,46.0,41.0,30.13,North,350,0.0,0.0,81,0.00,,,0.00,,2013-09-09 09:22:00,
2013-09-09 05:54:00,46.0,40.0,30.15,North,350,0.0,0.0,80,0.00,,,0.00,,2013-09-09 09:54:00,
2013-09-09 06:23:00,45.0,40.0,30.16,North,350,0.0,0.0,81,0.00,,,0.00,,2013-09-09 10:23:00,
2013-09-09 06:53:00,44.0,40.0,30.17,North,350,0.0,0.0,86,0.00,,,0.00,,2013-09-09 10:53:00,
2013-09-09 07:22:00,45.0,41.0,30.18,North,350,0.0,0.0,85,0.00,,,0.00,,2013-09-09 11:22:00,
2013-09-09 07:52:00,46.0,42.0,30.19,North,350,0.0,0.0,86,0.00,,,0.00,,2013-09-09 11:52:00,
2013-09-09 08:12:00,47.0,43.0,30.20,North,350,0.0,0.0,85,0.00,,,0.00,,2013-09-09 12:12:00,
2013-09-09 08:22:00,48.0,43.0,30.20,North,350,0.0,0.0,82,0.00,,,0.00,,2013-09-09 12:22:00,
2013-09-09 08:52:00,52.0,45.0,30.20,North,350,0.0,0.0,76,0.00,,,0.00,,2013-09-09 12:52:00,
2013-09-09 09:11:00,53.0,44.0,30.20,North,350,0.0,0.0,72,0.00,,,0.00,,2013-09-09 13:11:00,
2013-09-09 09:22:00,55.0,46.0,30.21,North,350,0.0,1.0,71,0.00,,,0.00,,2013-09-09 13:22:00,
2013-09-09 09:52:00,57.0,43.0,30.20,North,350,0.0,1.0,60,0.00,,,0.00,,2013-09-09 13:52:00,
2013-09-09 10:22:00,59.0,42.0,30.20,West,264,2.0,5.0,54,0.00,,,0.00,,2013-09-09 14:22:00,
2013-09-09 10:52:00,61.0,43.0,30.20,NW,311,0.0,1.0,52,0.00,,,0.00,,2013-09-09 14:52:00,
2013-09-09 11:22:00,61.0,42.0,30.19,West,267,0.0,1.0,49,0.00,,,0.00,,2013-09-09 15:22:00,
2013-09-09 11:53:00,63.0,44.0,30.19,SSW,205,0.0,6.0,49,0.00,,,0.00,,2013-09-09 15:53:00,
2013-09-09 12:25:00,64.0,43.0,30.18,WNW,299,0.0,5.0,47,0.00,,,0.00,,2013-09-09 16:25:00,
2013-09-09 12:54:00,66.0,47.0,30.17,SSW,211,1.0,4.0,50,0.00,,,0.00,,2013-09-09 16:54:00,
2013-09-09 13:23:00,66.0,44.0,30.16,SW,219,1.0,4.0,45,0.00,,,0.00,,2013-09-09 17:23:00,
2013-09-09 13:53:00,67.0,47.0,30.16,NW,316,0.0,2.0,48,0.00,,,0.00,,2013-09-09 17:53:00,
2013-09-09 14:13:00,66.0,48.0,30.15,WSW,245,0.0,4.0,52,0.00,,,0.00,,2013-09-09 18:13:00,
2013-09-09 14:22:00,66.0,46.0,30.15,SW,235,0.0,3.0,49,0.00,,,0.00,,2013-09-09 18:22:00,
2013-09-09 14:52:00,67.0,47.0,30.14,WNW,295,1.0,3.0,48,0.00,,,0.00,,2013-09-09 18:52:00,
2013-09-09 15:12:00,66.0,48.0,30.14,West,259,0.0,3.0,52,0.00,,,0.00,,2013-09-09 19:12:00,
2013-09-09 15:22:00,65.0,46.0,30.14,WSW,243,0.0,5.0,51,0.00,,,0.00,,2013-09-09 19:22:00,
2013-09-09 15:52:00,66.0,49.0,30.14,SW,234,1.0,3.0,54,0.00,,,0.00,,2013-09-09 19:52:00,
2013-09-09 16:12:00,65.0,48.0,30.14,WSW,253,1.0,4.0,55,0.00,,,0.00,,2013-09-09 20:12:00,
2013-09-09 16:22:00,65.0,48.0,30.15,SW,224,0.0,2.0,54,0.00,,,0.00,,2013-09-09 20:22:00,
2013-09-09 16:53:00,64.0,49.0,30.14,West,263,2.0,5.0,58,0.00,,,0.00,,2013-09-09 20:53:00,
2013-09-09 17:22:00,64.0,47.0,30.14,WNW,293,0.0,5.0,55,0.00,,,0.00,,2013-09-09 21:22:00,
2013-09-09 17:54:00,64.0,48.0,30.13,West,261,0.0,4.0,56,0.00,,,0.00,,2013-09-09 21:54:00,
2013-09-09 18:24:00,63.0,49.0,30.12,West,275,0.0,2.0,60,0.00,,,0.00,,2013-09-09 22:24:00,
2013-09-09 18:54:00,61.0,50.0,30.12,SSW,212,0.0,1.0,66,0.00,,,0.00,,2013-09-09 22:54:00,
2013-09-09 19:22:00,59.0,50.0,30.12,SSW,212,0.0,0.0,71,0.00,,,0.00,,2013-09-09 23:22:00,
2013-09-09 19:52:00,58.0,50.0,30.12,SSW,212,0.0,0.0,75,0.00,,,0.00,,2013-09-09 23:52:00,
2013-09-09 20:12:00,58.0,51.0,30.12,North,357,0.0,1.0,77,0.00,,,0.00,,2013-09-10 00:12:00,
2013-09-09 20:22:00,57.0,50.0,30.12,SW,216,0.0,1.0,77,0.00,,,0.00,,2013-09-10 00:22:00,
2013-09-09 20:42:00,57.0,50.0,30.13,WSW,245,0.0,3.0,78,0.00,,,0.00,,2013-09-10 00:42:00,
2013-09-09 20:52:00,57.0,50.0,30.12,WSW,244,0.0,2.0,77,0.00,,,0.00,,2013-09-10 00:52:00,
2013-09-09 21:21:00,57.0,50.0,30.13,SW,232,0.0,3.0,77,0.00,,,0.00,,2013-09-10 01:21:00,
2013-09-09 21:42:00,57.0,50.0,30.13,SW,233,0.0,2.0,77,0.00,,,0.00,,2013-09-10 01:42:00,
2013-09-09 21:53:00,57.0,50.0,30.13,SW,233,0.0,1.0,77,0.00,,,0.00,,2013-09-10 01:53:00,
2013-09-09 22:22:00,56.0,50.0,30.13,SW,233,0.0,1.0,79,0.00,,,0.00,,2013-09-10 02:22:00,
2013-09-09 22:52:00,56.0,51.0,30.14,SW,233,0.0,1.0,82,0.00,,,0.00,,2013-09-10 02:52:00,
2013-09-09 23:22:00,55.0,51.0,30.13,SW,233,0.0,1.0,85,0.00,,,0.00,,2013-09-10 03:22:00,
2013-09-09 23:55:00,54.0,50.0,30.12,SW,233,0.0,1.0,87,0.00,,,0.00,,2013-09-10 03:55:00,